SCO16NO EGPH-KMCO
Flight info
| Callsign | SCO16NO |
|---|---|
| Flight time | N/A |
| Altitude | 36000 |
| Route | GOSAM DCT TRN DCT NIPIT DCT REVNU DCT PIKIL/M083F360 DCT 57N020W 57N030W 57N040W 56N050W DCT JANJO/N0489F380 N706B TOPPS DCT HTO DCT SPDEY Q167 CAANO/N0485F400 Q167 ZJAAY DCT ORF DCT TYI DCT FAY DCT CHS DCT IGARY Q85 LPERD SNFLD3 |
| Aircraft | B77W/H-SDE1E2E3FGHIJ2J3J4J5M1RWXY/LB1D1 |
Departure
| Time | N/A |
|---|---|
| Airport | Edinburgh Airport (EGPH) |
Arrival
| Time | 2026-05-04 14:15 |
|---|---|
| Airport | Orlando International Airport (KMCO) |
| Time | Latitude | Longitude | Altitude | Speed | Heading |
|---|---|---|---|---|---|
| 2026-05-04 11:25 | 45.49135 | -67.58972 | 29695 ft | 398 kts | 217° |
| 2026-05-04 11:25 | 45.46855 | -67.61226 | 29689 ft | 399 kts | 217° |
| 2026-05-04 11:27 | 45.25696 | -67.83234 | 29719 ft | 448 kts | 220° |
| 2026-05-04 11:28 | 45.20825 | -67.88817 | 29707 ft | 451 kts | 220° |
| 2026-05-04 11:28 | 45.15926 | -67.94378 | 29714 ft | 450 kts | 220° |
| 2026-05-04 11:29 | 45.11035 | -67.99896 | 29722 ft | 449 kts | 220° |
| 2026-05-04 11:29 | 45.06153 | -68.05386 | 29720 ft | 447 kts | 220° |
| 2026-05-04 11:33 | 44.71140 | -68.44436 | 29758 ft | 491 kts | 223° |
| 2026-05-04 11:33 | 44.65767 | -68.50363 | 29739 ft | 491 kts | 223° |
| 2026-05-04 11:34 | 44.60400 | -68.56273 | 29760 ft | 490 kts | 223° |
| 2026-05-04 11:34 | 44.55049 | -68.62152 | 29755 ft | 487 kts | 223° |
| 2026-05-04 11:35 | 44.49715 | -68.68002 | 29756 ft | 486 kts | 223° |
| 2026-05-04 11:35 | 44.44397 | -68.73821 | 29748 ft | 485 kts | 223° |
| 2026-05-04 11:36 | 44.39092 | -68.79613 | 29749 ft | 484 kts | 223° |
| 2026-05-04 11:36 | 44.33778 | -68.85401 | 29756 ft | 484 kts | 223° |
| 2026-05-04 11:37 | 44.28465 | -68.91174 | 29765 ft | 484 kts | 223° |
| 2026-05-04 11:37 | 44.23140 | -68.96945 | 29769 ft | 485 kts | 223° |
| 2026-05-04 11:38 | 44.17815 | -69.02703 | 29775 ft | 485 kts | 223° |
| 2026-05-04 11:38 | 44.12484 | -69.08454 | 29779 ft | 485 kts | 223° |
| 2026-05-04 11:39 | 44.07153 | -69.14191 | 29788 ft | 484 kts | 223° |
| 2026-05-04 11:41 | 43.88484 | -69.34178 | 29770 ft | 484 kts | 223° |
| 2026-05-04 11:41 | 43.83149 | -69.39859 | 29780 ft | 483 kts | 223° |
| 2026-05-04 11:42 | 43.77814 | -69.45529 | 29779 ft | 483 kts | 223° |
| 2026-05-04 11:42 | 43.72509 | -69.51153 | 29784 ft | 484 kts | 223° |
| 2026-05-04 11:43 | 43.67125 | -69.56848 | 29785 ft | 484 kts | 223° |
| 2026-05-04 11:43 | 43.61812 | -69.62454 | 29786 ft | 484 kts | 223° |
| 2026-05-04 11:44 | 43.56459 | -69.68090 | 29789 ft | 484 kts | 223° |
| 2026-05-04 11:44 | 43.51094 | -69.73725 | 29791 ft | 485 kts | 223° |
| 2026-05-04 11:45 | 43.45731 | -69.79345 | 29781 ft | 484 kts | 222° |
| 2026-05-04 11:45 | 43.40372 | -69.84948 | 29786 ft | 484 kts | 222° |
| 2026-05-04 11:46 | 43.35009 | -69.90543 | 29791 ft | 484 kts | 222° |
| 2026-05-04 11:46 | 43.29646 | -69.96125 | 29788 ft | 483 kts | 222° |
| 2026-05-04 11:47 | 43.24286 | -70.01692 | 29792 ft | 483 kts | 222° |
| 2026-05-04 11:47 | 43.18926 | -70.07246 | 29796 ft | 483 kts | 222° |
| 2026-05-04 11:48 | 43.14468 | -70.11855 | 29791 ft | 483 kts | 222° |
| 2026-05-04 11:48 | 43.09109 | -70.17385 | 29809 ft | 483 kts | 222° |
| 2026-05-04 11:49 | 43.03743 | -70.22910 | 29798 ft | 483 kts | 221° |
| 2026-05-04 11:49 | 42.98374 | -70.28426 | 29802 ft | 483 kts | 221° |
| 2026-05-04 11:50 | 42.93003 | -70.33931 | 29802 ft | 483 kts | 221° |
| 2026-05-04 11:50 | 42.87618 | -70.39438 | 29799 ft | 484 kts | 221° |
| 2026-05-04 11:51 | 42.82228 | -70.44938 | 29808 ft | 484 kts | 221° |
| 2026-05-04 11:51 | 42.76833 | -70.50431 | 29808 ft | 485 kts | 221° |
| 2026-05-04 11:52 | 42.71431 | -70.55919 | 29818 ft | 484 kts | 221° |
| 2026-05-04 11:52 | 42.66029 | -70.61393 | 29823 ft | 484 kts | 221° |
| 2026-05-04 11:53 | 42.60639 | -70.66844 | 29830 ft | 483 kts | 221° |
| 2026-05-04 11:53 | 42.55249 | -70.72282 | 29832 ft | 482 kts | 221° |
| 2026-05-04 11:55 | 42.33752 | -70.93857 | 29843 ft | 479 kts | 221° |
| 2026-05-04 11:56 | 42.28398 | -70.99202 | 29836 ft | 478 kts | 221° |
| 2026-05-04 11:56 | 42.23055 | -71.04523 | 29850 ft | 477 kts | 221° |
| 2026-05-04 11:57 | 42.17752 | -71.09794 | 29849 ft | 476 kts | 221° |
| 2026-05-04 11:57 | 42.12386 | -71.15115 | 29846 ft | 476 kts | 221° |
| 2026-05-04 11:58 | 42.07057 | -71.20389 | 29850 ft | 475 kts | 221° |
| 2026-05-04 11:58 | 42.01767 | -71.25613 | 29847 ft | 475 kts | 221° |
| 2026-05-04 11:59 | 41.96442 | -71.30861 | 29867 ft | 474 kts | 221° |
| 2026-05-04 11:59 | 41.91114 | -71.36100 | 29867 ft | 475 kts | 221° |
| 2026-05-04 12:00 | 41.85779 | -71.41335 | 29864 ft | 475 kts | 221° |
| 2026-05-04 12:00 | 41.80441 | -71.46563 | 29884 ft | 475 kts | 220° |
| 2026-05-04 12:01 | 41.75101 | -71.51780 | 29885 ft | 475 kts | 220° |
| 2026-05-04 12:02 | 41.56437 | -71.69931 | 29872 ft | 474 kts | 220° |
| 2026-05-04 12:03 | 41.51098 | -71.75099 | 29897 ft | 474 kts | 220° |
| 2026-05-04 12:03 | 41.45765 | -71.80250 | 29901 ft | 474 kts | 220° |
| 2026-05-04 12:04 | 41.40424 | -71.85399 | 29906 ft | 474 kts | 220° |
| 2026-05-04 12:04 | 41.35071 | -71.90549 | 29901 ft | 474 kts | 220° |
| 2026-05-04 12:05 | 41.29719 | -71.95687 | 29904 ft | 474 kts | 220° |
| 2026-05-04 12:05 | 41.24369 | -72.00813 | 29904 ft | 474 kts | 220° |
| 2026-05-04 12:06 | 41.19016 | -72.05930 | 29904 ft | 474 kts | 220° |
| 2026-05-04 12:06 | 41.13662 | -72.11038 | 29920 ft | 474 kts | 220° |
| 2026-05-04 12:07 | 41.08307 | -72.16137 | 29923 ft | 474 kts | 220° |
| 2026-05-04 12:07 | 41.02952 | -72.21226 | 29925 ft | 474 kts | 220° |
| 2026-05-04 12:08 | 40.97596 | -72.26308 | 29927 ft | 474 kts | 220° |
| 2026-05-04 12:08 | 40.92270 | -72.31349 | 29913 ft | 474 kts | 220° |
| 2026-05-04 12:09 | 40.87238 | -72.36885 | 29938 ft | 470 kts | 226° |
| 2026-05-04 12:09 | 40.82383 | -72.42656 | 29943 ft | 470 kts | 226° |
| 2026-05-04 12:10 | 40.77495 | -72.48397 | 29936 ft | 470 kts | 225° |
| 2026-05-04 12:10 | 40.72581 | -72.54092 | 29941 ft | 470 kts | 225° |
| 2026-05-04 12:11 | 40.67652 | -72.59771 | 29939 ft | 471 kts | 225° |
| 2026-05-04 12:11 | 40.62718 | -72.65447 | 29948 ft | 471 kts | 225° |
| 2026-05-04 12:12 | 40.57782 | -72.71115 | 29945 ft | 471 kts | 225° |
| 2026-05-04 12:12 | 40.52843 | -72.76776 | 29937 ft | 471 kts | 225° |
| 2026-05-04 12:14 | 40.33038 | -72.99366 | 29950 ft | 472 kts | 225° |
| 2026-05-04 12:15 | 40.28079 | -73.04996 | 29952 ft | 472 kts | 225° |
| 2026-05-04 12:15 | 40.23110 | -73.10623 | 29947 ft | 472 kts | 225° |
| 2026-05-04 12:16 | 40.18144 | -73.16230 | 29951 ft | 472 kts | 225° |
| 2026-05-04 12:16 | 40.13172 | -73.21838 | 29958 ft | 472 kts | 225° |
| 2026-05-04 12:17 | 40.08205 | -73.27429 | 29963 ft | 472 kts | 225° |
| 2026-05-04 12:17 | 40.03229 | -73.33007 | 29955 ft | 471 kts | 225° |
| 2026-05-04 12:18 | 39.98254 | -73.38574 | 29972 ft | 471 kts | 225° |
| 2026-05-04 12:18 | 39.93281 | -73.44132 | 29966 ft | 471 kts | 225° |
| 2026-05-04 12:19 | 39.88310 | -73.49679 | 29971 ft | 470 kts | 225° |
| 2026-05-04 12:19 | 39.83340 | -73.55210 | 29974 ft | 470 kts | 225° |
| 2026-05-04 12:20 | 39.78369 | -73.60729 | 29977 ft | 470 kts | 225° |
| 2026-05-04 12:20 | 39.73401 | -73.66238 | 29975 ft | 470 kts | 225° |
| 2026-05-04 12:21 | 39.68429 | -73.71741 | 29973 ft | 469 kts | 225° |
| 2026-05-04 12:21 | 39.63489 | -73.77200 | 29976 ft | 469 kts | 224° |
| 2026-05-04 12:22 | 39.58511 | -73.82689 | 29981 ft | 470 kts | 224° |
| 2026-05-04 12:22 | 39.53531 | -73.88170 | 29980 ft | 470 kts | 224° |
| 2026-05-04 12:23 | 39.48547 | -73.93645 | 29979 ft | 470 kts | 224° |
| 2026-05-04 12:23 | 39.43558 | -73.99117 | 29981 ft | 470 kts | 224° |
| 2026-05-04 12:24 | 39.38559 | -74.04588 | 29982 ft | 470 kts | 224° |
| 2026-05-04 12:24 | 39.33567 | -74.10050 | 29986 ft | 471 kts | 224° |
| 2026-05-04 12:25 | 39.28569 | -74.15512 | 29984 ft | 470 kts | 224° |
| 2026-05-04 12:25 | 39.23576 | -74.20958 | 29986 ft | 470 kts | 224° |
| 2026-05-04 12:26 | 39.18574 | -74.26402 | 29982 ft | 470 kts | 224° |
| 2026-05-04 12:26 | 39.13582 | -74.31826 | 29990 ft | 469 kts | 224° |
| 2026-05-04 12:27 | 39.08587 | -74.37243 | 29992 ft | 469 kts | 224° |
| 2026-05-04 12:27 | 39.03594 | -74.42648 | 29994 ft | 469 kts | 224° |
| 2026-05-04 12:28 | 38.98599 | -74.48046 | 29996 ft | 469 kts | 224° |
| 2026-05-04 12:28 | 38.93602 | -74.53438 | 29997 ft | 469 kts | 225° |
| 2026-05-04 12:29 | 38.88798 | -74.58990 | 29999 ft | 467 kts | 227° |
| 2026-05-04 12:29 | 38.84031 | -74.64663 | 29994 ft | 468 kts | 226° |
| 2026-05-04 12:30 | 38.79227 | -74.70295 | 29997 ft | 468 kts | 226° |
| 2026-05-04 12:30 | 38.74398 | -74.75894 | 29997 ft | 468 kts | 225° |
| 2026-05-04 12:31 | 38.69368 | -74.81198 | 29992 ft | 469 kts | 223° |
| 2026-05-04 12:31 | 38.64269 | -74.86408 | 29994 ft | 469 kts | 223° |
| 2026-05-04 12:32 | 38.56677 | -74.94280 | 29998 ft | 468 kts | 224° |
| 2026-05-04 12:33 | 38.51634 | -74.99544 | 30006 ft | 467 kts | 225° |
| 2026-05-04 12:33 | 38.46757 | -75.05013 | 30010 ft | 467 kts | 225° |
| 2026-05-04 12:34 | 38.41625 | -75.10134 | 29999 ft | 470 kts | 221° |
| 2026-05-04 12:34 | 38.36336 | -75.15031 | 30017 ft | 470 kts | 221° |
| 2026-05-04 12:35 | 38.31961 | -75.19116 | 30004 ft | 469 kts | 221° |
| 2026-05-04 12:35 | 38.26723 | -75.24066 | 30002 ft | 468 kts | 221° |
| 2026-05-04 12:36 | 38.21504 | -75.29012 | 30003 ft | 468 kts | 221° |
| 2026-05-04 12:36 | 38.16279 | -75.33953 | 29995 ft | 468 kts | 221° |
| 2026-05-04 12:37 | 38.11057 | -75.38879 | 29999 ft | 468 kts | 221° |
| 2026-05-04 12:37 | 38.05821 | -75.43805 | 29997 ft | 469 kts | 221° |
| 2026-05-04 12:38 | 38.00134 | -75.47972 | 30002 ft | 476 kts | 212° |
| 2026-05-04 12:38 | 37.94201 | -75.51729 | 29991 ft | 476 kts | 212° |
| 2026-05-04 12:39 | 37.88304 | -75.55542 | 29991 ft | 476 kts | 213° |
| 2026-05-04 12:39 | 37.82429 | -75.59404 | 29995 ft | 476 kts | 213° |
| 2026-05-04 12:40 | 37.76552 | -75.63280 | 29996 ft | 476 kts | 213° |
| 2026-05-04 12:40 | 37.70674 | -75.67148 | 29998 ft | 477 kts | 213° |
| 2026-05-04 12:41 | 37.64792 | -75.71008 | 29998 ft | 477 kts | 213° |
| 2026-05-04 12:41 | 37.58900 | -75.74867 | 30017 ft | 477 kts | 213° |
| 2026-05-04 12:42 | 37.53045 | -75.78694 | 30006 ft | 477 kts | 213° |
| 2026-05-04 12:42 | 37.47152 | -75.82540 | 29999 ft | 477 kts | 214° |
| 2026-05-04 12:43 | 37.41252 | -75.86383 | 29993 ft | 477 kts | 214° |
| 2026-05-04 12:43 | 37.35351 | -75.90220 | 29993 ft | 477 kts | 214° |
| 2026-05-04 12:44 | 37.29449 | -75.94050 | 30003 ft | 478 kts | 214° |
| 2026-05-04 12:44 | 37.23539 | -75.97880 | 30005 ft | 478 kts | 214° |
| 2026-05-04 12:45 | 37.17621 | -76.01708 | 30002 ft | 479 kts | 214° |
| 2026-05-04 12:45 | 37.11694 | -76.05535 | 30006 ft | 479 kts | 214° |
| 2026-05-04 12:46 | 37.05763 | -76.09357 | 30009 ft | 480 kts | 214° |
| 2026-05-04 12:46 | 36.99825 | -76.13179 | 30003 ft | 480 kts | 214° |
| 2026-05-04 12:47 | 36.93880 | -76.16998 | 30003 ft | 481 kts | 214° |
| 2026-05-04 12:47 | 36.88325 | -76.21381 | 30010 ft | 462 kts | 231° |
| 2026-05-04 12:48 | 36.84615 | -76.27724 | 30007 ft | 450 kts | 243° |
| 2026-05-04 12:48 | 36.80968 | -76.34143 | 30038 ft | 456 kts | 238° |
| 2026-05-04 12:49 | 36.77087 | -76.40434 | 30026 ft | 458 kts | 238° |
| 2026-05-04 12:49 | 36.73215 | -76.46762 | 30020 ft | 459 kts | 238° |
| 2026-05-04 12:50 | 36.69378 | -76.53119 | 30035 ft | 459 kts | 239° |
| 2026-05-04 12:50 | 36.65555 | -76.59479 | 30035 ft | 459 kts | 239° |
| 2026-05-04 12:51 | 36.61754 | -76.65795 | 30033 ft | 459 kts | 239° |
| 2026-05-04 12:51 | 36.57924 | -76.72142 | 30029 ft | 459 kts | 238° |
| 2026-05-04 12:52 | 36.54090 | -76.78484 | 30031 ft | 459 kts | 238° |
| 2026-05-04 12:52 | 36.50239 | -76.84838 | 30021 ft | 460 kts | 238° |
| 2026-05-04 12:53 | 36.46382 | -76.91192 | 30019 ft | 461 kts | 238° |
| 2026-05-04 12:53 | 36.42517 | -76.97547 | 30033 ft | 462 kts | 238° |
| 2026-05-04 12:54 | 36.38640 | -77.03911 | 30030 ft | 463 kts | 238° |
| 2026-05-04 12:54 | 36.34748 | -77.10288 | 30033 ft | 464 kts | 238° |
| 2026-05-04 12:55 | 36.30843 | -77.16672 | 30034 ft | 465 kts | 238° |
| 2026-05-04 12:55 | 36.26932 | -77.23056 | 30035 ft | 466 kts | 238° |
| 2026-05-04 12:56 | 36.23007 | -77.29449 | 30035 ft | 466 kts | 238° |
| 2026-05-04 12:56 | 36.19072 | -77.35848 | 30032 ft | 467 kts | 237° |
| 2026-05-04 12:57 | 36.15130 | -77.42247 | 30036 ft | 468 kts | 237° |
| 2026-05-04 12:57 | 36.11170 | -77.48662 | 30038 ft | 469 kts | 237° |
| 2026-05-04 12:58 | 36.07204 | -77.55075 | 30022 ft | 470 kts | 237° |
| 2026-05-04 12:58 | 36.03224 | -77.61500 | 30031 ft | 471 kts | 238° |
| 2026-05-04 12:59 | 35.99231 | -77.67935 | 30038 ft | 473 kts | 238° |
| 2026-05-04 12:59 | 35.94895 | -77.74110 | 30050 ft | 481 kts | 230° |
| 2026-05-04 13:00 | 35.90011 | -77.79799 | 30037 ft | 484 kts | 229° |
| 2026-05-04 13:00 | 35.85115 | -77.85522 | 30036 ft | 485 kts | 230° |
| 2026-05-04 13:01 | 35.80284 | -77.91261 | 30035 ft | 486 kts | 230° |
| 2026-05-04 13:01 | 35.75428 | -77.97066 | 30034 ft | 487 kts | 230° |
| 2026-05-04 13:02 | 35.70562 | -78.02876 | 30028 ft | 488 kts | 230° |
| 2026-05-04 13:02 | 35.65684 | -78.08684 | 30031 ft | 488 kts | 230° |
| 2026-05-04 13:03 | 35.60801 | -78.14485 | 30036 ft | 489 kts | 230° |
| 2026-05-04 13:03 | 35.55909 | -78.20287 | 30019 ft | 489 kts | 230° |
| 2026-05-04 13:04 | 35.51011 | -78.26085 | 30019 ft | 490 kts | 230° |
| 2026-05-04 13:04 | 35.46100 | -78.31889 | 30021 ft | 490 kts | 230° |
| 2026-05-04 13:05 | 35.41195 | -78.37674 | 30025 ft | 490 kts | 230° |
| 2026-05-04 13:05 | 35.36286 | -78.43454 | 30024 ft | 489 kts | 230° |
| 2026-05-04 13:06 | 35.31378 | -78.49223 | 30029 ft | 488 kts | 230° |
| 2026-05-04 13:06 | 35.26487 | -78.54962 | 30034 ft | 487 kts | 230° |
| 2026-05-04 13:07 | 35.21601 | -78.60685 | 30032 ft | 486 kts | 231° |
| 2026-05-04 13:07 | 35.16723 | -78.66389 | 30026 ft | 484 kts | 231° |
| 2026-05-04 13:08 | 35.11859 | -78.72067 | 30013 ft | 483 kts | 231° |
| 2026-05-04 13:08 | 35.07003 | -78.77727 | 30024 ft | 482 kts | 231° |
| 2026-05-04 13:09 | 35.02150 | -78.83375 | 30024 ft | 482 kts | 230° |
| 2026-05-04 13:09 | 34.97073 | -78.88669 | 30019 ft | 493 kts | 219° |
| 2026-05-04 13:09 | 34.93975 | -78.90547 | 30028 ft | 504 kts | 208° |
| 2026-05-04 13:10 | 34.90693 | -78.92056 | 30015 ft | 503 kts | 209° |
| 2026-05-04 13:10 | 34.84320 | -78.95471 | 30042 ft | 500 kts | 212° |
| 2026-05-04 13:11 | 34.78038 | -78.99121 | 30036 ft | 500 kts | 213° |
| 2026-05-04 13:11 | 34.71748 | -79.02763 | 30032 ft | 501 kts | 212° |
| 2026-05-04 13:12 | 34.65433 | -79.06364 | 30031 ft | 501 kts | 212° |
| 2026-05-04 13:12 | 34.59110 | -79.09938 | 30026 ft | 501 kts | 212° |
| 2026-05-04 13:13 | 34.52800 | -79.13498 | 30032 ft | 501 kts | 212° |
| 2026-05-04 13:13 | 34.46481 | -79.17060 | 30036 ft | 501 kts | 211° |
| 2026-05-04 13:14 | 34.40164 | -79.20617 | 30036 ft | 501 kts | 211° |
| 2026-05-04 13:14 | 34.33840 | -79.24172 | 30049 ft | 501 kts | 211° |
| 2026-05-04 13:15 | 34.27518 | -79.27720 | 30052 ft | 501 kts | 211° |
| 2026-05-04 13:15 | 34.21193 | -79.31264 | 30053 ft | 501 kts | 211° |
| 2026-05-04 13:16 | 34.14958 | -79.34741 | 30029 ft | 477 kts | 211° |
| 2026-05-04 13:16 | 34.12008 | -79.36376 | 30036 ft | 458 kts | 211° |
| 2026-05-04 13:16 | 34.09177 | -79.37945 | 30095 ft | 438 kts | 211° |
| 2026-05-04 13:16 | 34.06454 | -79.39458 | 30023 ft | 422 kts | 211° |
| 2026-05-04 13:17 | 34.03762 | -79.40966 | 30071 ft | 434 kts | 211° |
| 2026-05-04 13:17 | 34.00983 | -79.42535 | 30076 ft | 449 kts | 211° |
| 2026-05-04 13:17 | 33.98116 | -79.44152 | 30072 ft | 463 kts | 211° |
| 2026-05-04 13:17 | 33.95156 | -79.45812 | 30074 ft | 475 kts | 211° |
| 2026-05-04 13:18 | 33.92120 | -79.47504 | 30070 ft | 485 kts | 210° |
| 2026-05-04 13:18 | 33.85881 | -79.50963 | 30070 ft | 501 kts | 210° |
| 2026-05-04 13:19 | 33.79509 | -79.54482 | 30057 ft | 504 kts | 210° |
| 2026-05-04 13:19 | 33.73152 | -79.57987 | 30054 ft | 502 kts | 210° |
| 2026-05-04 13:20 | 33.66855 | -79.61462 | 30049 ft | 500 kts | 210° |
| 2026-05-04 13:20 | 33.60539 | -79.64946 | 30050 ft | 499 kts | 210° |
| 2026-05-04 13:21 | 33.54231 | -79.68420 | 30050 ft | 499 kts | 210° |
| 2026-05-04 13:21 | 33.47910 | -79.71895 | 30060 ft | 499 kts | 210° |
| 2026-05-04 13:22 | 33.41594 | -79.75363 | 30058 ft | 500 kts | 210° |
| 2026-05-04 13:22 | 33.35276 | -79.78825 | 30058 ft | 500 kts | 210° |
| 2026-05-04 13:23 | 33.28948 | -79.82286 | 30063 ft | 500 kts | 210° |
| 2026-05-04 13:23 | 33.22624 | -79.85740 | 30065 ft | 500 kts | 210° |
| 2026-05-04 13:24 | 33.16335 | -79.89169 | 30061 ft | 500 kts | 210° |
| 2026-05-04 13:24 | 33.11030 | -79.92058 | 30065 ft | 500 kts | 210° |
| 2026-05-04 13:25 | 33.00517 | -79.97772 | 30062 ft | 500 kts | 210° |
| 2026-05-04 13:25 | 32.94191 | -80.01204 | 30063 ft | 499 kts | 209° |
| 2026-05-04 13:26 | 32.88958 | -80.04201 | 30058 ft | 494 kts | 216° |
| 2026-05-04 13:26 | 32.86229 | -80.06629 | 30052 ft | 486 kts | 227° |
| 2026-05-04 13:26 | 32.83937 | -80.09462 | 30056 ft | 481 kts | 231° |
| 2026-05-04 13:27 | 32.79105 | -80.15019 | 30058 ft | 486 kts | 226° |
| 2026-05-04 13:27 | 32.74043 | -80.20370 | 30064 ft | 488 kts | 226° |
| 2026-05-04 13:28 | 32.68980 | -80.25735 | 30062 ft | 488 kts | 226° |
| 2026-05-04 13:28 | 32.63947 | -80.31123 | 30059 ft | 488 kts | 226° |
| 2026-05-04 13:29 | 32.58911 | -80.36512 | 30050 ft | 487 kts | 226° |
| 2026-05-04 13:29 | 32.53296 | -80.41090 | 30063 ft | 496 kts | 212° |
| 2026-05-04 13:30 | 32.47207 | -80.44933 | 30054 ft | 496 kts | 213° |
| 2026-05-04 13:30 | 32.41182 | -80.48896 | 30056 ft | 495 kts | 214° |
| 2026-05-04 13:31 | 32.35196 | -80.52925 | 30058 ft | 495 kts | 214° |
| 2026-05-04 13:31 | 32.29214 | -80.56962 | 30074 ft | 495 kts | 214° |
| 2026-05-04 13:32 | 32.23233 | -80.60985 | 30071 ft | 495 kts | 214° |
| 2026-05-04 13:32 | 32.17241 | -80.65002 | 30074 ft | 495 kts | 214° |
| 2026-05-04 13:33 | 32.11296 | -80.68981 | 30067 ft | 495 kts | 214° |
| 2026-05-04 13:33 | 32.05309 | -80.72982 | 30061 ft | 495 kts | 214° |
| 2026-05-04 13:34 | 31.99316 | -80.76982 | 30051 ft | 495 kts | 214° |
| 2026-05-04 13:34 | 31.93327 | -80.80973 | 30033 ft | 494 kts | 214° |
| 2026-05-04 13:35 | 31.84349 | -80.86944 | 30031 ft | 494 kts | 214° |
| 2026-05-04 13:36 | 31.78362 | -80.90919 | 30033 ft | 494 kts | 214° |
| 2026-05-04 13:36 | 31.72374 | -80.94888 | 30036 ft | 494 kts | 214° |
| 2026-05-04 13:37 | 31.66388 | -80.98851 | 30037 ft | 494 kts | 214° |
| 2026-05-04 13:37 | 31.60396 | -81.02813 | 30039 ft | 494 kts | 214° |
| 2026-05-04 13:38 | 31.54360 | -81.06679 | 30038 ft | 495 kts | 212° |
| 2026-05-04 13:38 | 31.48239 | -81.10375 | 30051 ft | 495 kts | 212° |
| 2026-05-04 13:39 | 31.42115 | -81.14099 | 30046 ft | 495 kts | 212° |
| 2026-05-04 13:39 | 31.36001 | -81.17828 | 30071 ft | 496 kts | 212° |
| 2026-05-04 13:40 | 31.29838 | -81.21475 | 30058 ft | 496 kts | 211° |
| 2026-05-04 13:40 | 31.23675 | -81.25114 | 30056 ft | 496 kts | 211° |
| 2026-05-04 13:41 | 31.17362 | -81.28246 | 30050 ft | 505 kts | 197° |
| 2026-05-04 13:41 | 31.13834 | -81.28658 | 30058 ft | 516 kts | 185° |
| 2026-05-04 13:41 | 31.10246 | -81.28357 | 30060 ft | 517 kts | 180° |
| 2026-05-04 13:42 | 30.99454 | -81.28093 | 29504 ft | 514 kts | 186° |
| 2026-05-04 13:42 | 30.95918 | -81.28140 | 28942 ft | 502 kts | 186° |
| 2026-05-04 13:42 | 30.92453 | -81.28173 | 28399 ft | 494 kts | 185° |
| 2026-05-04 13:43 | 30.89035 | -81.28188 | 27877 ft | 493 kts | 185° |
| 2026-05-04 13:43 | 30.85570 | -81.28191 | 27389 ft | 502 kts | 185° |
| 2026-05-04 13:43 | 30.82062 | -81.28185 | 26886 ft | 506 kts | 185° |
| 2026-05-04 13:43 | 30.78551 | -81.28171 | 26389 ft | 504 kts | 185° |
| 2026-05-04 13:44 | 30.75054 | -81.28153 | 25903 ft | 501 kts | 184° |
| 2026-05-04 13:44 | 30.71580 | -81.28137 | 25432 ft | 497 kts | 184° |
| 2026-05-04 13:44 | 30.68129 | -81.28124 | 24963 ft | 495 kts | 184° |
| 2026-05-04 13:44 | 30.64698 | -81.28113 | 24499 ft | 492 kts | 184° |
| 2026-05-04 13:45 | 30.61284 | -81.28102 | 24042 ft | 489 kts | 184° |
| 2026-05-04 13:45 | 30.57892 | -81.28002 | 23557 ft | 488 kts | 181° |
| 2026-05-04 13:45 | 30.54512 | -81.27688 | 23161 ft | 484 kts | 179° |
| 2026-05-04 13:45 | 30.51165 | -81.27284 | 23054 ft | 483 kts | 178° |
| 2026-05-04 13:46 | 30.47830 | -81.26859 | 23053 ft | 482 kts | 178° |
| 2026-05-04 13:46 | 30.44495 | -81.26444 | 23050 ft | 482 kts | 178° |
| 2026-05-04 13:46 | 30.41159 | -81.26047 | 23052 ft | 482 kts | 179° |
| 2026-05-04 13:46 | 30.37814 | -81.25667 | 23049 ft | 483 kts | 179° |
| 2026-05-04 13:47 | 30.34473 | -81.25300 | 23053 ft | 483 kts | 179° |
| 2026-05-04 13:47 | 30.31124 | -81.24939 | 23050 ft | 483 kts | 179° |
| 2026-05-04 13:47 | 30.27786 | -81.24582 | 23051 ft | 483 kts | 179° |
| 2026-05-04 13:47 | 30.24437 | -81.24224 | 23053 ft | 483 kts | 179° |
| 2026-05-04 13:48 | 30.21094 | -81.23866 | 23048 ft | 482 kts | 179° |
| 2026-05-04 13:48 | 30.17753 | -81.23508 | 23050 ft | 482 kts | 179° |
| 2026-05-04 13:48 | 30.14415 | -81.23150 | 23051 ft | 482 kts | 179° |
| 2026-05-04 13:48 | 30.11076 | -81.22792 | 23056 ft | 482 kts | 179° |
| 2026-05-04 13:49 | 30.07740 | -81.22434 | 23049 ft | 481 kts | 179° |
| 2026-05-04 13:49 | 30.04405 | -81.22076 | 23054 ft | 481 kts | 179° |
| 2026-05-04 13:49 | 30.01071 | -81.21719 | 23063 ft | 481 kts | 179° |
| 2026-05-04 13:49 | 29.97736 | -81.21362 | 23062 ft | 481 kts | 179° |
| 2026-05-04 13:50 | 29.94445 | -81.21010 | 23060 ft | 481 kts | 179° |
| 2026-05-04 13:50 | 29.91110 | -81.20653 | 23055 ft | 481 kts | 179° |
| 2026-05-04 13:50 | 29.87771 | -81.20297 | 22946 ft | 483 kts | 179° |
| 2026-05-04 13:50 | 29.84425 | -81.19940 | 22552 ft | 482 kts | 179° |
| 2026-05-04 13:51 | 29.81100 | -81.19584 | 22155 ft | 477 kts | 179° |
| 2026-05-04 13:51 | 29.77817 | -81.19231 | 21764 ft | 471 kts | 179° |
| 2026-05-04 13:51 | 29.74566 | -81.18883 | 21383 ft | 467 kts | 179° |
| 2026-05-04 13:51 | 29.71340 | -81.18539 | 20998 ft | 464 kts | 179° |
| 2026-05-04 13:52 | 29.64938 | -81.17859 | 20263 ft | 459 kts | 179° |
| 2026-05-04 13:52 | 29.61760 | -81.17522 | 19904 ft | 457 kts | 178° |
| 2026-05-04 13:52 | 29.58598 | -81.17187 | 19539 ft | 455 kts | 178° |
| 2026-05-04 13:53 | 29.55452 | -81.16853 | 19199 ft | 454 kts | 178° |
| 2026-05-04 13:53 | 29.52312 | -81.16520 | 18858 ft | 452 kts | 178° |
| 2026-05-04 13:53 | 29.49185 | -81.16189 | 18514 ft | 451 kts | 178° |
| 2026-05-04 13:54 | 29.42972 | -81.15530 | 17740 ft | 447 kts | 178° |
| 2026-05-04 13:54 | 29.39877 | -81.15203 | 17356 ft | 444 kts | 178° |
| 2026-05-04 13:54 | 29.33767 | -81.14556 | 16583 ft | 438 kts | 178° |
| 2026-05-04 13:55 | 29.30749 | -81.14236 | 16210 ft | 434 kts | 177° |
| 2026-05-04 13:55 | 29.24791 | -81.13607 | 15470 ft | 425 kts | 177° |
| 2026-05-04 13:55 | 29.21882 | -81.13300 | 15115 ft | 416 kts | 177° |
| 2026-05-04 13:56 | 29.19022 | -81.12999 | 14749 ft | 407 kts | 177° |
| 2026-05-04 13:56 | 29.16230 | -81.12706 | 14374 ft | 400 kts | 177° |
| 2026-05-04 13:56 | 29.10791 | -81.12132 | 13623 ft | 386 kts | 177° |
| 2026-05-04 13:57 | 29.08138 | -81.11853 | 13167 ft | 381 kts | 177° |
| 2026-05-04 13:57 | 29.05554 | -81.11420 | 12969 ft | 369 kts | 167° |
| 2026-05-04 13:58 | 28.98624 | -81.08653 | 12892 ft | 350 kts | 163° |
| 2026-05-04 13:58 | 28.93852 | -81.07565 | 11938 ft | 348 kts | 178° |
| 2026-05-04 13:58 | 28.91444 | -81.07366 | 11454 ft | 348 kts | 178° |
| 2026-05-04 13:59 | 28.89095 | -81.07162 | 10959 ft | 336 kts | 181° |
| 2026-05-04 13:59 | 28.86850 | -81.07528 | 10462 ft | 320 kts | 201° |
| 2026-05-04 13:59 | 28.82817 | -81.09269 | 9478 ft | 302 kts | 203° |
| 2026-05-04 14:00 | 28.80871 | -81.10096 | 8961 ft | 295 kts | 202° |
| 2026-05-04 14:00 | 28.77110 | -81.11675 | 8093 ft | 279 kts | 202° |
| 2026-05-04 14:00 | 28.75265 | -81.12445 | 8018 ft | 287 kts | 202° |
| 2026-05-04 14:01 | 28.73385 | -81.13227 | 7982 ft | 286 kts | 202° |
| 2026-05-04 14:01 | 28.71529 | -81.13996 | 7968 ft | 282 kts | 202° |
| 2026-05-04 14:01 | 28.67787 | -81.15243 | 7966 ft | 280 kts | 194° |
| 2026-05-04 14:02 | 28.65911 | -81.15696 | 7955 ft | 271 kts | 194° |
| 2026-05-04 14:02 | 28.64097 | -81.16133 | 7951 ft | 262 kts | 194° |
| 2026-05-04 14:02 | 28.62322 | -81.16575 | 7957 ft | 260 kts | 195° |
| 2026-05-04 14:02 | 28.60564 | -81.17023 | 7947 ft | 258 kts | 195° |
| 2026-05-04 14:03 | 28.58804 | -81.17478 | 7854 ft | 262 kts | 195° |
| 2026-05-04 14:03 | 28.57003 | -81.17945 | 7505 ft | 268 kts | 195° |
| 2026-05-04 14:03 | 28.55173 | -81.18420 | 7155 ft | 271 kts | 195° |
| 2026-05-04 14:03 | 28.53314 | -81.18755 | 6783 ft | 272 kts | 184° |
| 2026-05-04 14:04 | 28.49507 | -81.18722 | 6073 ft | 275 kts | 180° |
| 2026-05-04 14:04 | 28.47637 | -81.18702 | 5970 ft | 267 kts | 180° |
| 2026-05-04 14:04 | 28.45823 | -81.18707 | 5913 ft | 256 kts | 181° |
| 2026-05-04 14:05 | 28.42295 | -81.18730 | 5401 ft | 251 kts | 180° |
| 2026-05-04 14:05 | 28.40553 | -81.18740 | 5182 ft | 249 kts | 180° |
| 2026-05-04 14:05 | 28.38839 | -81.18752 | 5024 ft | 241 kts | 180° |
| 2026-05-04 14:06 | 28.37196 | -81.18763 | 4967 ft | 233 kts | 179° |
| 2026-05-04 14:06 | 28.35591 | -81.18776 | 4965 ft | 230 kts | 179° |
| 2026-05-04 14:06 | 28.33992 | -81.18790 | 4963 ft | 230 kts | 179° |
| 2026-05-04 14:06 | 28.32383 | -81.18801 | 4937 ft | 233 kts | 179° |
| 2026-05-04 14:07 | 28.30738 | -81.18812 | 4601 ft | 240 kts | 178° |
| 2026-05-04 14:07 | 28.29057 | -81.18768 | 4236 ft | 243 kts | 176° |
| 2026-05-04 14:07 | 28.27362 | -81.18734 | 3856 ft | 244 kts | 184° |
| 2026-05-04 14:07 | 28.25678 | -81.19053 | 3538 ft | 246 kts | 191° |
| 2026-05-04 14:08 | 28.24027 | -81.19631 | 3174 ft | 252 kts | 199° |
| 2026-05-04 14:08 | 28.22413 | -81.20398 | 2983 ft | 248 kts | 203° |
| 2026-05-04 14:08 | 28.20963 | -81.21356 | 2950 ft | 234 kts | 214° |
| 2026-05-04 14:08 | 28.19689 | -81.22431 | 2941 ft | 226 kts | 216° |
| 2026-05-04 14:09 | 28.17940 | -81.25271 | 2969 ft | 225 kts | 262° |
| 2026-05-04 14:09 | 28.17810 | -81.27031 | 2973 ft | 224 kts | 275° |
| 2026-05-04 14:10 | 28.19278 | -81.29945 | 2949 ft | 215 kts | 331° |
| 2026-05-04 14:10 | 28.20636 | -81.30476 | 2977 ft | 203 kts | 354° |
| 2026-05-04 14:10 | 28.22016 | -81.30663 | 3013 ft | 200 kts | 358° |
| 2026-05-04 14:10 | 28.23423 | -81.30825 | 2983 ft | 204 kts | 358° |
| 2026-05-04 14:11 | 28.24809 | -81.31146 | 2960 ft | 207 kts | 341° |
| 2026-05-04 14:11 | 28.27535 | -81.31990 | 2830 ft | 208 kts | 358° |
| 2026-05-04 14:11 | 28.28969 | -81.32073 | 2569 ft | 204 kts | 2° |
| 2026-05-04 14:12 | 28.30364 | -81.32091 | 2270 ft | 195 kts | 4° |
| 2026-05-04 14:12 | 28.31654 | -81.32103 | 2025 ft | 176 kts | 4° |
| 2026-05-04 14:12 | 28.33815 | -81.32124 | 1621 ft | 144 kts | 4° |
| 2026-05-04 14:13 | 28.34801 | -81.32131 | 1416 ft | 142 kts | 5° |
| 2026-05-04 14:13 | 28.35776 | -81.32139 | 1219 ft | 138 kts | 4° |
| 2026-05-04 14:13 | 28.36723 | -81.32150 | 1074 ft | 140 kts | 4° |
| 2026-05-04 14:13 | 28.37709 | -81.32160 | 880 ft | 141 kts | 2° |
| 2026-05-04 14:14 | 28.38667 | -81.32170 | 682 ft | 136 kts | 3° |
| 2026-05-04 14:14 | 28.40541 | -81.32193 | 335 ft | 138 kts | 1° |
| 2026-05-04 14:14 | 28.41523 | -81.32203 | 217 ft | 138 kts | 3° |
| 2026-05-04 14:15 | 28.43287 | -81.32212 | 107 ft | 71 kts | 358° |
| 2026-05-04 14:15 | 28.43934 | -81.32172 | 112 ft | 27 kts | 45° |
| 2026-05-04 14:16 | 28.43979 | -81.32098 | 111 ft | 0 kts | 69° |
| 2026-05-04 14:17 | 28.43982 | -81.32081 | 112 ft | 7 kts | 85° |
| 2026-05-04 14:18 | 28.43943 | -81.32005 | 112 ft | 13 kts | 164° |
| 2026-05-04 14:18 | 28.43525 | -81.31999 | 109 ft | 34 kts | 179° |
| 2026-05-04 14:19 | 28.42943 | -81.31991 | 107 ft | 45 kts | 180° |
| 2026-05-04 14:19 | 28.42649 | -81.31990 | 109 ft | 39 kts | 179° |
| 2026-05-04 14:19 | 28.42438 | -81.31987 | 112 ft | 0 kts | 179° |
| 2026-05-04 14:20 | 28.42399 | -81.31986 | 111 ft | 18 kts | 177° |
| 2026-05-04 14:20 | 28.42343 | -81.31907 | 110 ft | 21 kts | 95° |
| 2026-05-04 14:20 | 28.42350 | -81.31732 | 109 ft | 16 kts | 73° |
| 2026-05-04 14:21 | 28.42550 | -81.31558 | 107 ft | 11 kts | 33° |
| 2026-05-04 14:21 | 28.42555 | -81.31554 | 108 ft | 0 kts | 36° |